Detall de PIREP

Printer-friendly versionPDF version

[2010/09/23 07:28:00]
Flight IATA:CT2105
Pilot Number:041
Company ICAO:CAT
Aircraft Type:F100/A
PAX:84
Departing Airport: LEBB
Destination Airport: LEVC
Alternate Airport:LEA.L
Online: VATSIM
Route:AMTOS3C VRA B11 DGO B11 GASMO B11 OSTIX B11 RBO B11 HORTA A33 CJN A33 PRADO A33 CENTA
Flight Level:FL220
No Slew and time accel
No pause
Crash detect
Detect pilot in Cockpit between each 30 and 45 minutes
07:28 Zero fuel Weight: 84955 Lbs, Fuel Weight: 10136 Lbs
07:28 VATSIM:LEBB 230700Z 06001KT 3500 BR FEW015 18/17 Q1015 BECMG 6000 NSW
07:28 VATSIM:LEVC 230700Z 00000KT CAVOK 21/19 Q1017 NOSIG
07:28 VOICE CATALONIAN
07:36 Parking Brakes off
07:45 Take-off
07:45 Take off Weight: 94453 Lbs
07:45 Wind: 064º @ 001 Knots Heading: 295º
07:45 POS N43º 18´ 16´´ W002º 55´ 13´´
07:45 Gear Up: 197 Knots
07:45 Flaps:1 at 197 Knots
07:45 Flaps:0 at 229 Knots
08:00 Wind:247º@024 Knots Heading: 187º Ground Speed: 381 Knots Altitude 21036 ft
08:15 Wind:250º@065 Knots Heading: 197º Ground Speed: 364 Knots Altitude 21131 ft
08:18 TOC
08:18 Fuel Weight: 6252 Lb
08:23 TOD
08:23 Fuel Weight: 5830 Lb
08:30 Wind:235º@012 Knots Heading: 121º Ground Speed: 313 Knots Altitude 10262 ft
08:37 Flaps:1 at 222 Knots
08:39 Flaps:2 at 207 Knots
08:41 Flaps:3 at 193 Knots
08:42 Gear Down: 182 Knots
08:43 Flaps:4 at 171 Knots
08:45 Wind:183º@002 Knots Heading: 116º Ground Speed: 156 Knots Altitude 2020 ft
08:47 TouchDown:Rate -71 ft/min Speed: 131 Knots
08:47 VATSIM:LEVC 230830Z 00000KT CAVOK 22/20 Q1017 NOSIG
08:47 Land
08:47 Wind:187º@002 Knots
08:47 Heading: 116º
08:47 Flight Duration: 01:02
08:47 Landing Weight: 89414 Lbs
08:47 POS N39º 29´ 13´´ W000º 28´ 33´´
08:51 Parking brakes on
08:51 Block to Block Duration: 01:15
08:51 Final Fuel: 4307 Lbls
08:51 Spent Fuel: 5828 Lbls
08:51 Flight Length: 331 NM
08:51 TOD Land Length: 105 NM

Exportar CSV

Powered by Drupal - Modified by Danger4k